Página principal
METAR-TAF:

METAR-TAF

Aeroportos :

Aeroporto de Vigo

Vigo, Espanha

latitude: 42-13N, longitude: 008-38W, altura: 264 m

Observação actual do tempo

O boletim foi feito há 26 minutos, às 13:00 UTC
Vento 4 kt de nor-nordeste, variando entre noroeste e es-sudeste
Temperatura 32°C
Humidade 29%
Pressão 1025 hPa
Visibilidade 10 km ou mais
sem nuvens abaixo de 1500 metros e sem cumulonimbus

METAR: LEVX 071300Z 02004KT 320V120 CAVOK 32/12 Q1025 NOSIG

Hora: 15:26 (13:26 UTC)

Previsão

O boletim foi feito há 2 horas e 26 minutos, às 11:00 UTC
Previsão válida de 07 às 12 UTC a 08 às 12 UTC
Vento 5 kt com direcção variável
Visibilidade 10 km ou mais
sem nuvens abaixo de 1500 metros e sem cumulonimbus
Probabilidade 30% :
Temporariamente
de 07 às 12 UTC a 07 às 21 UTC
Vento 10 kt de nordeste

TAF: LEVX 071100Z 0712/0812 VRB05KT CAVOK TX33/0716Z TN18/0806Z PROB30 TEMPO 0712/0721 04010KT

Observações e previsões do tempo de mais de 4000 aeroportos (mensagens METAR e TAF).

As estações disponíveis são os pontos amarelos e vermelhos sobre o mapa.

Mova o rato sobre o mapa para ver o nome da estação.

Depois clique no ponto para visualizar as observações e previsões meteorológicas.

Para alterar o mapa : clique nos botões verdes com uma cruz preta para aumentar o zoom; no botão verde com uma pitada de zoom; ou nas setas verdes para mapas adjacentes.


METAR-TAF: